Time;durP1;ratioP1;P1;durP2;ratioP2;P2;SDS_P1;SDS_P2;PMS_P1;PMS_P2;Temp;Humidity;BMP_temperature;BMP_pressure;BME280_temperature;BME280_humidity;BME280_pressure;Samples;Min_cycle;Max_cycle;Signal;HPM_P1;HPM_P2
2023/04/22 00:01:16;;;;;;;28.63;25.50;;;8.80;99.90;;;;;;5113585;28;20181;-58
2023/04/22 00:03:43;;;;;;;27.65;24.75;;;8.80;99.90;;;;;;5113574;28;20190;-58
2023/04/22 00:06:09;;;;;;;27.92;25.02;;;8.90;99.90;;;;;;5113431;28;20256;-58
2023/04/22 00:08:35;;;;;;;22.45;20.23;;;8.80;99.90;;;;;;5113265;28;20200;-58
2023/04/22 00:11:02;;;;;;;17.80;15.95;;;8.60;99.90;;;;;;5113736;28;20671;-58
2023/04/22 00:13:27;;;;;;;18.88;17.08;;;8.50;99.90;;;;;;5113375;28;20166;-58
2023/04/22 00:15:53;;;;;;;20.08;17.88;;;8.60;99.90;;;;;;5113464;28;20174;-58
2023/04/22 00:18:19;;;;;;;25.23;22.58;;;8.60;99.90;;;;;;5113464;28;20165;-58
2023/04/22 00:20:45;;;;;;;24.77;22.17;;;8.70;99.90;;;;;;5113466;28;20229;-58
2023/04/22 00:23:12;;;;;;;23.90;21.48;;;8.80;99.90;;;;;;5113253;28;20179;-58
2023/04/22 00:25:38;;;;;;;24.63;22.10;;;8.80;99.90;;;;;;5112881;28;20272;-58
2023/04/22 00:28:04;;;;;;;20.50;18.40;;;8.80;99.90;;;;;;5113422;28;20211;-58
2023/04/22 00:30:30;;;;;;;18.90;16.85;;;8.70;99.90;;;;;;5113267;28;20251;-58
2023/04/22 00:32:56;;;;;;;21.92;19.63;;;8.70;99.90;;;;;;5113247;28;20251;-58
2023/04/22 00:35:21;;;;;;;21.52;19.30;;;8.70;99.90;;;;;;5113267;28;20535;-58
2023/04/22 00:37:47;;;;;;;20.30;18.30;;;8.80;99.90;;;;;;5113128;28;20173;-58
2023/04/22 00:40:13;;;;;;;21.65;19.35;;;8.80;99.90;;;;;;5113343;28;20212;-58
2023/04/22 00:42:40;;;;;;;23.08;20.77;;;8.80;99.90;;;;;;5113387;28;20177;-58
2023/04/22 00:45:10;;;;;;;23.30;20.85;;;8.80;99.90;;;;;;5113294;28;20263;-58
2023/04/22 00:47:36;;;;;;;22.05;19.77;;;8.80;99.90;;;;;;5113080;28;20277;-58
2023/04/22 00:50:03;;;;;;;26.83;24.13;;;8.90;99.90;;;;;;5112895;28;20229;-58
2023/04/22 00:52:28;;;;;;;26.45;23.77;;;8.90;99.90;;;;;;5113032;28;20260;-58
2023/04/22 00:54:54;;;;;;;26.30;23.80;;;8.90;99.90;;;;;;5113599;28;20251;-59
2023/04/22 00:57:20;;;;;;;29.38;26.45;;;9.00;99.90;;;;;;5116981;28;20180;-58
2023/04/22 00:59:47;;;;;;;25.38;22.95;;;9.00;99.90;;;;;;5116798;28;20578;-58
2023/04/22 01:02:14;;;;;;;27.10;24.23;;;9.00;99.90;;;;;;5116837;28;20185;-58
2023/04/22 01:04:40;;;;;;;26.35;23.75;;;9.00;99.90;;;;;;5116655;28;20169;-58
2023/04/22 01:07:06;;;;;;;26.83;24.13;;;9.00;99.90;;;;;;5116918;28;20211;-59
2023/04/22 01:09:32;;;;;;;26.38;23.88;;;9.00;99.90;;;;;;5116570;28;20205;-58
2023/04/22 01:11:57;;;;;;;27.05;24.33;;;9.10;99.90;;;;;;5098435;28;20621;-58
2023/04/22 01:14:24;;;;;;;27.20;24.45;;;9.00;99.90;;;;;;5116553;28;20211;-58
2023/04/22 01:16:52;;;;;;;28.88;26.05;;;9.00;99.90;;;;;;5116479;28;20210;-58
2023/04/22 01:19:18;;;;;;;26.25;23.52;;;9.00;99.90;;;;;;5116298;28;20250;-58
2023/04/22 01:21:46;;;;;;;26.90;24.35;;;9.00;99.90;;;;;;5116351;28;20209;-58
2023/04/22 01:24:12;;;;;;;26.92;24.38;;;9.00;99.90;;;;;;5116413;28;20181;-58
2023/04/22 01:26:37;;;;;;;27.85;25.05;;;9.00;99.90;;;;;;5116323;28;20180;-58
2023/04/22 01:29:04;;;;;;;26.52;23.92;;;9.00;99.90;;;;;;5116380;28;20249;-58
2023/04/22 01:31:30;;;;;;;28.40;25.50;;;9.00;99.90;;;;;;5116166;28;20202;-58
2023/04/22 01:33:56;;;;;;;29.17;26.25;;;9.00;99.90;;;;;;5116129;28;20544;-58
2023/04/22 01:36:22;;;;;;;28.15;25.45;;;9.10;99.90;;;;;;5116331;28;20212;-58
2023/04/22 01:38:48;;;;;;;29.50;26.48;;;9.10;99.90;;;;;;5097879;28;20278;-58
2023/04/22 01:41:13;;;;;;;29.40;26.52;;;9.00;99.90;;;;;;5116194;28;20627;-58
2023/04/22 01:43:40;;;;;;;29.42;26.48;;;9.00;99.90;;;;;;5116126;28;20577;-58
2023/04/22 01:46:07;;;;;;;27.15;24.55;;;9.10;99.90;;;;;;5115847;28;20173;-59
2023/04/22 01:48:34;;;;;;;27.38;24.77;;;9.00;99.90;;;;;;5115764;28;20572;-59
2023/04/22 01:51:00;;;;;;;27.23;24.73;;;8.90;99.90;;;;;;5116336;28;20257;-58
2023/04/22 01:53:26;;;;;;;25.92;23.45;;;8.90;99.90;;;;;;5116021;28;20170;-59
2023/04/22 01:55:52;;;;;;;27.67;24.98;;;8.90;99.90;;;;;;5115842;28;20632;-59
2023/04/22 01:58:18;;;;;;;27.10;24.40;;;8.90;99.90;;;;;;5115707;28;20177;-59
2023/04/22 02:00:44;;;;;;;27.98;25.38;;;8.90;99.90;;;;;;5115604;28;20673;-59
2023/04/22 02:03:10;;;;;;;27.85;25.25;;;8.80;99.90;;;;;;5115488;28;20173;-59
2023/04/22 02:05:37;;;;;;;27.77;25.17;;;8.80;99.90;;;;;;5115824;28;20196;-59
2023/04/22 02:08:03;;;;;;;26.63;24.13;;;8.90;99.90;;;;;;5114780;28;20520;-59
2023/04/22 02:10:29;;;;;;;26.48;24.05;;;8.90;99.90;;;;;;5097031;28;20177;-59
2023/04/22 02:12:55;;;;;;;24.88;22.48;;;8.80;99.90;;;;;;5115479;28;20299;-58
2023/04/22 02:15:21;;;;;;;24.80;22.40;;;8.70;99.90;;;;;;5115335;28;20655;-59
2023/04/22 02:17:48;;;;;;;24.40;22.10;;;8.70;99.90;;;;;;5115233;28;20193;-58
2023/04/22 02:20:17;;;;;;;25.92;23.60;;;8.80;99.90;;;;;;5115317;28;20211;-58
2023/04/22 02:22:43;;;;;;;26.02;23.60;;;8.80;99.90;;;;;;5115408;28;20201;-59
2023/04/22 02:25:11;;;;;;;27.85;25.25;;;8.80;99.90;;;;;;5115312;28;20181;-59
2023/04/22 02:27:37;;;;;;;27.58;24.98;;;8.80;99.90;;;;;;5115094;28;20181;-59
2023/04/22 02:30:03;;;;;;;26.48;24.08;;;8.90;99.90;;;;;;5115053;28;20181;-58
2023/04/22 02:32:29;;;;;;;26.55;23.98;;;8.90;99.90;;;;;;5114941;28;20268;-59
2023/04/22 02:34:54;;;;;;;27.00;24.40;;;8.90;99.90;;;;;;5115178;28;20207;-58
2023/04/22 02:37:21;;;;;;;30.73;27.83;;;8.80;99.90;;;;;;5115009;28;20275;-59
2023/04/22 02:39:48;;;;;;;30.20;27.30;;;8.70;99.90;;;;;;5114814;28;20209;-59
2023/04/22 02:42:14;;;;;;;30.30;27.48;;;8.80;99.90;;;;;;5114821;28;20644;-58
2023/04/22 02:44:40;;;;;;;31.58;28.48;;;8.80;99.90;;;;;;5114800;28;20173;-59
2023/04/22 02:47:06;;;;;;;30.50;27.52;;;8.80;99.90;;;;;;5114635;28;20173;-59
2023/04/22 02:49:32;;;;;;;31.45;28.45;;;8.90;99.90;;;;;;5114553;28;20277;-59
2023/04/22 02:51:57;;;;;;;30.13;27.27;;;8.90;99.90;;;;;;5114826;28;20577;-59
2023/04/22 02:54:23;;;;;;;29.35;26.55;;;8.80;99.90;;;;;;5114695;28;20169;-59
2023/04/22 02:56:49;;;;;;;30.80;27.85;;;8.80;99.90;;;;;;5114626;28;20169;-58
2023/04/22 02:59:14;;;;;;;33.22;29.83;;;8.80;99.90;;;;;;5114427;28;20273;-59
2023/04/22 03:01:40;;;;;;;30.98;27.90;;;8.80;99.90;;;;;;5114289;28;20177;-59
2023/04/22 03:04:06;;;;;;;31.05;27.95;;;8.80;99.90;;;;;;5114544;28;20174;-58
2023/04/22 03:06:31;;;;;;;33.45;29.98;;;8.80;99.90;;;;;;5114504;28;20173;-58
2023/04/22 03:08:57;;;;;;;32.47;29.10;;;8.80;99.90;;;;;;5114306;28;20176;-58
2023/04/22 03:11:22;;;;;;;32.38;29.20;;;8.80;99.90;;;;;;5114382;28;20223;-58
2023/04/22 03:13:48;;;;;;;33.63;30.23;;;8.80;99.90;;;;;;5114289;28;20165;-57
2023/04/22 03:16:16;;;;;;;31.80;28.70;;;8.90;99.90;;;;;;5114093;28;20244;-59
2023/04/22 03:18:41;;;;;;;29.65;26.80;;;8.90;99.90;;;;;;5113286;28;20201;-59
2023/04/22 03:21:07;;;;;;;30.65;27.75;;;8.80;99.90;;;;;;5114086;28;20200;-57
2023/04/22 03:23:33;;;;;;;32.42;29.27;;;8.80;99.90;;;;;;5114194;28;20555;-59
2023/04/22 03:25:59;;;;;;;30.77;27.90;;;8.80;99.90;;;;;;5114094;28;20174;-58
2023/04/22 03:28:24;;;;;;;32.33;29.27;;;8.80;99.90;;;;;;5114032;28;20177;-59
2023/04/22 03:30:50;;;;;;;31.83;28.85;;;8.70;99.90;;;;;;5113813;28;20169;-59
2023/04/22 03:33:17;;;;;;;32.05;29.05;;;8.70;99.90;;;;;;5114068;28;20177;-58
2023/04/22 03:35:42;;;;;;;31.08;28.08;;;8.60;99.90;;;;;;5114062;28;20166;-59
2023/04/22 03:38:08;;;;;;;35.22;31.63;;;8.60;99.90;;;;;;5114018;28;20217;-59
2023/04/22 03:40:34;;;;;;;34.22;30.92;;;8.60;99.90;;;;;;5113812;28;20201;-58
2023/04/22 03:42:59;;;;;;;29.52;26.73;;;8.60;99.90;;;;;;5113746;28;20208;-57
2023/04/22 03:45:25;;;;;;;28.92;26.10;;;8.50;99.90;;;;;;5113649;28;20204;-59
2023/04/22 03:47:51;;;;;;;29.83;26.90;;;8.40;99.90;;;;;;5113742;28;20183;-60
2023/04/22 03:50:17;;;;;;;29.63;26.80;;;8.40;99.90;;;;;;5113907;28;20264;-61
2023/04/22 03:52:42;;;;;;;30.63;27.77;;;8.30;99.90;;;;;;5113755;28;20584;-60
2023/04/22 03:55:09;;;;;;;31.17;28.08;;;8.40;99.90;;;;;;5113669;28;20173;-59
2023/04/22 03:57:34;;;;;;;29.88;27.10;;;8.40;99.90;;;;;;5113560;28;20269;-59
2023/04/22 04:00:00;;;;;;;30.27;27.27;;;8.50;99.90;;;;;;5113457;28;20232;-59
2023/04/22 04:02:26;;;;;;;29.23;26.42;;;8.50;99.90;;;;;;5113515;28;20603;-57
2023/04/22 04:04:51;;;;;;;29.13;26.33;;;8.50;99.90;;;;;;5113405;28;20169;-58
2023/04/22 04:07:17;;;;;;;27.30;24.73;;;8.60;99.90;;;;;;5113549;28;20251;-57
2023/04/22 04:09:43;;;;;;;27.10;24.20;;;8.60;99.90;;;;;;5113540;28;20264;-59
2023/04/22 04:12:08;;;;;;;29.30;26.52;;;8.60;99.90;;;;;;5113562;28;20173;-59
2023/04/22 04:14:34;;;;;;;28.10;25.40;;;8.60;99.90;;;;;;5095233;28;20174;-58
2023/04/22 04:17:00;;;;;;;28.33;25.58;;;8.60;99.90;;;;;;5113689;28;20177;-58
2023/04/22 04:19:25;;;;;;;29.45;26.55;;;8.60;99.90;;;;;;5095314;28;20292;-58
2023/04/22 04:21:51;;;;;;;32.17;29.08;;;8.60;99.90;;;;;;5113426;28;20632;-58
2023/04/22 04:24:17;;;;;;;32.25;28.92;;;8.50;99.90;;;;;;5113442;28;20597;-58
2023/04/22 04:26:42;;;;;;;33.70;30.42;;;8.60;99.90;;;;;;5113404;28;20180;-58
2023/04/22 04:29:08;;;;;;;32.00;28.95;;;8.60;99.90;;;;;;5113227;28;20173;-58
2023/04/22 04:31:34;;;;;;;32.03;29.00;;;8.60;99.90;;;;;;5116783;28;20197;-58
2023/04/22 04:34:00;;;;;;;31.02;27.95;;;8.60;99.90;;;;;;5117526;28;20234;-58
2023/04/22 04:36:28;;;;;;;31.65;28.52;;;8.70;99.90;;;;;;5117428;28;20161;-58
2023/04/22 04:38:54;;;;;;;33.75;30.35;;;8.60;99.90;;;;;;5117120;28;20242;-58
2023/04/22 04:41:20;;;;;;;35.33;31.90;;;8.60;99.90;;;;;;5117229;28;20177;-59
2023/04/22 04:43:46;;;;;;;35.03;31.42;;;8.70;99.90;;;;;;5117034;28;20174;-58
2023/04/22 04:46:13;;;;;;;35.13;31.65;;;8.70;99.90;;;;;;5117294;28;20173;-58
2023/04/22 04:48:41;;;;;;;34.75;31.30;;;8.70;99.90;;;;;;5117016;28;20221;-58
2023/04/22 04:51:07;;;;;;;33.90;30.50;;;8.80;99.90;;;;;;5116950;28;20162;-58
2023/04/22 04:53:33;;;;;;;36.03;32.33;;;8.80;99.90;;;;;;5117048;28;20247;-58
2023/04/22 04:55:59;;;;;;;34.33;30.95;;;8.80;99.90;;;;;;5116887;28;20260;-58
2023/04/22 04:58:24;;;;;;;36.20;32.80;;;8.80;99.90;;;;;;5116832;28;20761;-58
2023/04/22 05:00:50;;;;;;;36.00;32.42;;;8.80;99.90;;;;;;5117008;28;20201;-58
2023/04/22 05:03:16;;;;;;;33.55;30.27;;;8.80;99.90;;;;;;5117009;28;20195;-58
2023/04/22 05:05:42;;;;;;;32.63;29.58;;;8.70;99.90;;;;;;5117067;28;20256;-58
2023/04/22 05:08:07;;;;;;;33.25;30.05;;;8.80;99.90;;;;;;5116657;28;20576;-58
2023/04/22 05:10:33;;;;;;;33.47;30.33;;;8.80;99.90;;;;;;5116570;28;20181;-58
2023/04/22 05:12:59;;;;;;;32.08;29.05;;;8.80;99.90;;;;;;5116577;28;20174;-58
2023/04/22 05:15:24;;;;;;;31.67;28.58;;;8.80;99.90;;;;;;5116516;28;20624;-58
2023/04/22 05:17:50;;;;;;;30.83;27.95;;;8.90;99.90;;;;;;5116702;28;20177;-59
2023/04/22 05:20:16;;;;;;;32.05;29.05;;;8.80;99.90;;;;;;5116445;28;20212;-59
2023/04/22 05:22:43;;;;;;;31.73;28.77;;;8.80;99.90;;;;;;5116462;28;20199;-59
2023/04/22 05:25:09;;;;;;;34.67;28.25;;;8.80;99.90;;;;;;5116357;28;20181;-59
2023/04/22 05:27:35;;;;;;;30.65;27.70;;;8.80;99.90;;;;;;5116095;28;20226;-58
2023/04/22 05:30:01;;;;;;;30.67;27.42;;;8.80;99.90;;;;;;5116495;28;20177;-58
2023/04/22 05:32:26;;;;;;;33.45;30.10;;;8.90;99.90;;;;;;5097699;28;20216;-58
2023/04/22 05:34:52;;;;;;;32.90;29.60;;;8.80;99.90;;;;;;5097988;28;20547;-58
2023/04/22 05:37:18;;;;;;;34.25;30.80;;;8.80;99.90;;;;;;5115631;28;20610;-58
2023/04/22 05:39:43;;;;;;;37.03;33.33;;;8.90;99.90;;;;;;5115461;28;20193;-58
2023/04/22 05:42:09;;;;;;;38.28;34.38;;;9.00;99.90;;;;;;5114372;28;20231;-58
2023/04/22 05:44:35;;;;;;;39.85;35.90;;;9.00;99.90;;;;;;5115670;28;20191;-59
2023/04/22 05:47:01;;;;;;;39.35;35.33;;;9.10;99.90;;;;;;5115152;28;20192;-59
2023/04/22 05:49:26;;;;;;;41.97;37.70;;;9.20;99.90;;;;;;5115286;28;20221;-59
2023/04/22 05:51:52;;;;;;;41.45;37.17;;;9.30;99.90;;;;;;5115255;28;20176;-59
2023/04/22 05:54:19;;;;;;;42.33;37.92;;;9.40;99.90;;;;;;5115430;28;20197;-58
2023/04/22 05:56:45;;;;;;;41.70;37.38;;;9.40;99.90;;;;;;5115248;28;20539;-58
2023/04/22 05:59:10;;;;;;;40.05;36.05;;;9.40;99.90;;;;;;5115800;28;20299;-58
2023/04/22 06:01:36;;;;;;;40.22;36.25;;;9.40;99.90;;;;;;5115490;28;20184;-59
2023/04/22 06:04:08;;;;;;;40.25;36.22;;;9.50;99.90;;;;;;5115657;28;20297;-58
2023/04/22 06:06:34;;;;;;;40.70;36.35;;;9.60;99.90;;;;;;5115545;28;20173;-58
2023/04/22 06:09:00;;;;;;;38.60;34.80;;;9.70;99.90;;;;;;5114471;28;20172;-59
2023/04/22 06:11:27;;;;;;;40.80;36.83;;;9.70;99.90;;;;;;5113185;28;20574;-59
2023/04/22 06:13:52;;;;;;;39.78;35.78;;;9.80;99.90;;;;;;5114844;28;20184;-58
2023/04/22 06:16:18;;;;;;;38.55;34.75;;;9.80;99.90;;;;;;5096973;28;20177;-58
2023/04/22 06:18:44;;;;;;;45.88;41.22;;;10.00;99.90;;;;;;5114305;28;20220;-61
2023/04/22 06:21:10;;;;;;;43.90;39.42;;;10.00;99.90;;;;;;5112949;28;20173;-59
2023/04/22 06:23:35;;;;;;;38.13;34.38;;;10.10;99.90;;;;;;5112889;28;20174;-60
2023/04/22 06:26:01;;;;;;;40.72;36.83;;;10.10;99.90;;;;;;5114711;28;20671;-59
2023/04/22 06:28:27;;;;;;;44.53;40.05;;;10.20;99.90;;;;;;5115174;28;20176;-58
2023/04/22 06:30:53;;;;;;;39.45;35.55;;;10.30;99.90;;;;;;5114744;28;20666;-58
2023/04/22 06:33:18;;;;;;;39.67;35.88;;;10.30;99.90;;;;;;5096988;28;20186;-57
2023/04/22 06:35:44;;;;;;;38.55;34.75;;;10.40;99.90;;;;;;5114893;28;20646;-58
2023/04/22 06:38:10;;;;;;;37.30;33.60;;;10.60;99.90;;;;;;5114841;28;20170;-58
2023/04/22 06:40:36;;;;;;;36.72;33.17;;;10.60;99.90;;;;;;5096273;28;20216;-58
2023/04/22 06:43:02;;;;;;;34.30;30.92;;;10.70;99.90;;;;;;5114758;28;20226;-57
2023/04/22 06:45:27;;;;;;;34.72;31.33;;;10.70;99.90;;;;;;5096088;28;20185;-58
2023/04/22 06:47:53;;;;;;;33.08;29.67;;;10.70;99.90;;;;;;5114248;28;20260;-57
2023/04/22 06:50:19;;;;;;;32.63;29.52;;;10.80;99.90;;;;;;5114641;28;20188;-58
2023/04/22 06:52:45;;;;;;;33.50;30.20;;;10.90;99.90;;;;;;5114319;28;20240;-58
2023/04/22 06:55:11;;;;;;;32.85;29.42;;;10.90;99.90;;;;;;5114439;28;20284;-58
2023/04/22 06:57:36;;;;;;;31.65;28.45;;;11.00;99.90;;;;;;5114533;28;20581;-58
2023/04/22 07:00:08;;;;;;;31.55;28.38;;;11.10;99.90;;;;;;5114586;28;20223;-58
2023/04/22 07:02:34;;;;;;;30.63;27.60;;;11.10;99.90;;;;;;5114442;28;20191;-57
2023/04/22 07:04:59;;;;;;;30.58;27.58;;;11.20;99.90;;;;;;5114357;28;20173;-58
2023/04/22 07:07:25;;;;;;;31.08;28.10;;;11.20;99.90;;;;;;5114313;28;20208;-58
2023/04/22 07:09:51;;;;;;;29.98;27.02;;;11.20;99.90;;;;;;5114278;28;20568;-58
2023/04/22 07:12:16;;;;;;;27.65;25.05;;;11.10;99.90;;;;;;5114227;28;20278;-58
2023/04/22 07:14:43;;;;;;;28.65;25.88;;;11.00;99.90;;;;;;5114696;28;20185;-58
2023/04/22 07:17:10;;;;;;;29.42;26.52;;;11.00;99.90;;;;;;5114312;28;20181;-58
2023/04/22 07:19:36;;;;;;;29.55;26.50;;;10.90;99.90;;;;;;5114143;28;20208;-58
2023/04/22 07:22:02;;;;;;;31.92;28.88;;;11.00;99.90;;;;;;5095831;28;20189;-58
2023/04/22 07:24:28;;;;;;;31.15;27.95;;;11.00;99.90;;;;;;5114046;28;20234;-58
2023/04/22 07:26:54;;;;;;;31.23;28.02;;;11.10;99.90;;;;;;5114446;28;20173;-58
2023/04/22 07:29:20;;;;;;;28.48;25.73;;;11.10;99.90;;;;;;5096075;28;20169;-58
2023/04/22 07:31:45;;;;;;;31.60;28.23;;;11.00;99.90;;;;;;5114072;28;20172;-57
2023/04/22 07:34:13;;;;;;;29.77;26.88;;;11.00;99.90;;;;;;5113607;28;20173;-58
2023/04/22 07:36:38;;;;;;;31.55;28.45;;;11.00;99.90;;;;;;5113331;28;20715;-58
2023/04/22 07:39:04;;;;;;;31.90;28.65;;;11.10;99.90;;;;;;5113619;28;20293;-60
2023/04/22 07:41:30;;;;;;;32.47;29.17;;;11.20;99.90;;;;;;5113943;28;20570;-59
2023/04/22 07:43:56;;;;;;;32.05;28.80;;;11.30;99.90;;;;;;5113921;28;20192;-59
2023/04/22 07:46:22;;;;;;;30.08;27.17;;;11.40;99.90;;;;;;5113933;28;20718;-59
2023/04/22 07:48:48;;;;;;;28.40;25.67;;;11.30;99.90;;;;;;5113891;28;20260;-59
2023/04/22 07:51:13;;;;;;;28.90;26.00;;;11.30;99.90;;;;;;5113680;28;20173;-59
2023/04/22 07:53:39;;;;;;;29.15;26.35;;;11.40;99.90;;;;;;5113609;28;20209;-60
2023/04/22 07:56:04;;;;;;;29.20;26.20;;;11.30;99.90;;;;;;5113676;28;20705;-58
2023/04/22 07:58:30;;;;;;;27.85;25.05;;;11.40;99.90;;;;;;5113739;28;20176;-60
2023/04/22 08:00:56;;;;;;;26.60;23.90;;;11.50;99.90;;;;;;5113278;28;20239;-58
2023/04/22 08:03:22;;;;;;;26.48;23.95;;;11.60;99.90;;;;;;5113635;28;20253;-57
2023/04/22 08:05:48;;;;;;;26.05;23.58;;;11.50;99.90;;;;;;5112996;28;20171;-58
2023/04/22 08:08:14;;;;;;;25.80;23.35;;;11.50;99.90;;;;;;5113448;28;20173;-58
2023/04/22 08:10:40;;;;;;;26.52;23.83;;;11.70;99.90;;;;;;5113194;28;20177;-58
2023/04/22 08:13:05;;;;;;;25.75;23.25;;;11.80;99.90;;;;;;5110909;28;20664;-58
2023/04/22 08:15:31;;;;;;;25.85;23.38;;;11.90;99.90;;;;;;5112183;28;20181;-58
2023/04/22 08:17:57;;;;;;;26.92;24.20;;;12.00;99.90;;;;;;5113532;28;20166;-59
2023/04/22 08:20:23;;;;;;;25.58;23.08;;;12.20;99.90;;;;;;5113476;28;20205;-60
2023/04/22 08:22:50;;;;;;;24.58;22.17;;;12.40;99.90;;;;;;5113275;28;20177;-58
2023/04/22 08:25:16;;;;;;;23.45;21.15;;;12.50;99.90;;;;;;5113566;28;20173;-58
2023/04/22 08:27:41;;;;;;;22.38;20.13;;;12.70;99.90;;;;;;5113459;28;20178;-58
2023/04/22 08:30:08;;;;;;;23.45;21.10;;;12.90;99.90;;;;;;5113398;28;20188;-57
2023/04/22 08:32:34;;;;;;;22.00;19.80;;;13.20;99.90;;;;;;5113276;28;20350;-58
2023/04/22 08:34:59;;;;;;;20.30;18.40;;;13.30;99.90;;;;;;5113385;28;20277;-58
2023/04/22 08:37:26;;;;;;;20.55;18.45;;;13.50;99.90;;;;;;5113213;28;20177;-58
2023/04/22 08:39:52;;;;;;;21.42;19.25;;;13.70;99.90;;;;;;5113250;28;20205;-58
2023/04/22 08:42:20;;;;;;;21.27;19.17;;;13.90;99.90;;;;;;5112268;28;20184;-58
2023/04/22 08:44:46;;;;;;;34.00;30.80;;;13.90;99.90;;;;;;5113040;28;20586;-58
2023/04/22 08:47:17;;;;;;;27.73;25.23;;;13.80;99.90;;;;;;5094739;28;20173;-58
2023/04/22 08:49:43;;;;;;;22.73;20.60;;;13.80;99.90;;;;;;5112933;28;20706;-58
2023/04/22 08:52:10;;;;;;;23.67;21.48;;;13.80;99.90;;;;;;5113034;28;20204;-57
2023/04/22 08:54:38;;;;;;;21.65;19.63;;;13.70;99.90;;;;;;5113148;28;20189;-57
2023/04/22 08:57:04;;;;;;;21.95;19.85;;;13.80;99.90;;;;;;5112967;28;20705;-57
2023/04/22 08:59:30;;;;;;;18.90;17.20;;;13.90;99.90;;;;;;5112893;28;20743;-57
2023/04/22 09:01:57;;;;;;;17.88;16.23;;;14.20;99.90;;;;;;5113166;28;20215;-57
2023/04/22 09:04:23;;;;;;;32.05;29.08;;;14.20;99.90;;;;;;5113124;28;20227;-61
2023/04/22 09:06:49;;;;;;;26.20;23.63;;;14.20;99.90;;;;;;5112836;28;20217;-58
2023/04/22 09:09:14;;;;;;;20.45;18.48;;;14.20;99.90;;;;;;5113139;28;20181;-58
2023/04/22 09:11:40;;;;;;;19.05;17.30;;;14.30;99.90;;;;;;5113059;28;20221;-58
2023/04/22 09:14:06;;;;;;;19.60;17.60;;;14.30;99.90;;;;;;5113093;28;20183;-57
2023/04/22 09:16:32;;;;;;;18.50;16.70;;;14.20;99.90;;;;;;5112909;28;20525;-58
2023/04/22 09:18:59;;;;;;;18.40;16.63;;;14.10;99.90;;;;;;5116215;28;20172;-58
2023/04/22 09:21:26;;;;;;;27.17;24.60;;;14.10;99.90;;;;;;5116530;28;20185;-58
2023/04/22 09:23:54;;;;;;;17.52;15.80;;;13.90;99.90;;;;;;5116601;28;20169;-58
2023/04/22 09:26:23;;;;;;;18.17;16.40;;;13.80;99.90;;;;;;5116447;28;20629;-58
2023/04/22 09:28:52;;;;;;;16.80;15.10;;;13.90;99.90;;;;;;5116480;28;20205;-58
2023/04/22 09:31:20;;;;;;;16.73;15.23;;;13.40;99.90;;;;;;5116284;28;20173;-58
2023/04/22 09:33:54;;;;;;;16.85;15.30;;;13.30;99.90;;;;;;5116095;28;20543;-58
2023/04/22 09:36:29;;;;;;;18.33;16.60;;;13.20;99.90;;;;;;5116499;28;20523;-58
2023/04/22 09:38:58;;;;;;;17.83;16.13;;;13.10;99.90;;;;;;5116104;28;20196;-58
2023/04/22 09:41:28;;;;;;;19.60;17.80;;;13.10;99.90;;;;;;5116109;28;20166;-58
2023/04/22 09:43:56;;;;;;;19.20;17.45;;;13.00;99.90;;;;;;5116044;28;20165;-58
2023/04/22 09:46:24;;;;;;;20.40;18.40;;;13.00;99.90;;;;;;5116173;28;20591;-60
2023/04/22 09:48:49;;;;;;;21.60;19.40;;;13.00;99.90;;;;;;5116033;28;20213;-57
2023/04/22 09:51:16;;;;;;;21.83;19.73;;;12.90;99.90;;;;;;5116038;28;20173;-57
2023/04/22 09:53:42;;;;;;;22.27;19.98;;;13.00;99.90;;;;;;5116018;28;20247;-57
2023/04/22 09:56:08;;;;;;;21.95;19.83;;;12.90;99.90;;;;;;5115862;28;20196;-57
2023/04/22 09:58:38;;;;;;;23.80;21.40;;;12.70;99.90;;;;;;5115702;28;20177;-57
2023/04/22 10:01:05;;;;;;;23.48;21.17;;;12.70;99.90;;;;;;5115326;28;20221;-57
2023/04/22 10:03:31;;;;;;;23.92;21.42;;;12.70;99.90;;;;;;5114449;28;20184;-57
2023/04/22 10:06:00;;;;;;;22.52;20.23;;;12.50;99.90;;;;;;5094922;28;20689;-57
2023/04/22 10:08:26;;;;;;;23.92;21.58;;;12.40;99.90;;;;;;5113528;28;20173;-57
2023/04/22 10:10:52;;;;;;;25.92;23.23;;;12.30;99.90;;;;;;5113450;28;20188;-57
2023/04/22 10:13:18;;;;;;;23.25;20.85;;;12.20;99.90;;;;;;5113274;28;20172;-57
2023/04/22 10:15:49;;;;;;;24.60;22.10;;;12.20;99.90;;;;;;5113908;28;20558;-57
2023/04/22 10:18:20;;;;;;;25.75;23.05;;;12.20;99.90;;;;;;5114522;28;20189;-57
2023/04/22 10:20:47;;;;;;;26.58;23.77;;;12.20;99.90;;;;;;5115676;28;20265;-57
2023/04/22 10:23:20;;;;;;;26.65;23.83;;;12.20;99.90;;;;;;5115374;28;20178;-57
2023/04/22 10:25:53;;;;;;;25.90;23.13;;;12.20;99.90;;;;;;5115115;28;20176;-57
2023/04/22 10:28:21;;;;;;;25.55;22.85;;;12.20;99.90;;;;;;5114965;28;20183;-56
2023/04/22 10:30:48;;;;;;;24.40;22.00;;;12.10;99.90;;;;;;5115181;28;20256;-57
2023/04/22 10:33:19;;;;;;;23.88;21.48;;;12.10;99.90;;;;;;5115133;28;20184;-57
2023/04/22 10:36:08;;;;;;;24.27;21.77;;;12.10;99.90;;;;;;5115007;28;20177;-56
2023/04/22 10:38:35;;;;;;;23.35;21.10;;;12.10;99.90;;;;;;5115180;28;20245;-56
2023/04/22 10:41:02;;;;;;;24.30;21.88;;;12.00;99.90;;;;;;5114984;28;20258;-56
2023/04/22 10:43:48;;;;;;;24.30;21.92;;;12.00;99.90;;;;;;5115025;28;20189;-58
2023/04/22 10:46:33;;;;;;;24.42;22.02;;;12.00;99.90;;;;;;5114534;28;20169;-54
2023/04/22 10:49:21;;;;;;;23.45;21.13;;;12.00;99.90;;;;;;5114719;28;20312;-56
2023/04/22 10:51:49;;;;;;;24.17;21.58;;;11.90;99.90;;;;;;5115029;28;20172;-58
2023/04/22 10:54:54;;;;;;;23.92;21.52;;;11.90;99.90;;;;;;5114898;28;20199;-56
2023/04/22 10:57:23;;;;;;;22.67;20.48;;;11.90;99.90;;;;;;5110627;28;20189;-57
2023/04/22 10:59:52;;;;;;;23.50;21.13;;;11.90;99.90;;;;;;5114748;28;20210;-56
2023/04/22 11:02:19;;;;;;;24.00;21.60;;;11.80;99.90;;;;;;5114685;28;20187;-56
2023/04/22 11:04:46;;;;;;;23.23;20.92;;;11.90;99.90;;;;;;5096468;28;20658;-56
2023/04/22 11:07:26;;;;;;;23.23;20.88;;;11.80;99.90;;;;;;5114545;28;20174;-57
2023/04/22 11:09:59;;;;;;;23.98;21.48;;;11.80;99.90;;;;;;5114618;28;20263;-58
2023/04/22 11:12:37;;;;;;;23.80;21.35;;;11.90;99.90;;;;;;5114608;28;20161;-57
2023/04/22 11:15:07;;;;;;;23.15;20.90;;;12.00;99.90;;;;;;5114049;28;20173;-56
2023/04/22 11:17:34;;;;;;;21.60;19.50;;;12.10;99.90;;;;;;5113356;28;20165;-56
2023/04/22 11:20:01;;;;;;;21.60;19.38;;;12.00;99.90;;;;;;5111916;28;20690;-59
2023/04/22 11:22:27;;;;;;;21.13;19.00;;;11.90;99.90;;;;;;5112316;28;20161;-56
2023/04/22 11:24:53;;;;;;;22.45;20.27;;;11.90;99.90;;;;;;5112543;28;20297;-56
2023/04/22 11:27:25;;;;;;;21.33;19.23;;;12.00;99.90;;;;;;5112426;28;20172;-56
2023/04/22 11:30:30;;;;;;;20.85;18.85;;;12.00;99.90;;;;;;5112324;28;20169;-56
2023/04/22 11:32:58;;;;;;;21.20;19.20;;;12.10;99.90;;;;;;5113574;28;20634;-56
2023/04/22 11:35:30;;;;;;;20.60;18.65;;;12.10;99.90;;;;;;5114193;28;20161;-55
2023/04/22 11:38:07;;;;;;;20.38;18.48;;;12.10;99.90;;;;;;5114063;28;20169;-56
2023/04/22 11:40:38;;;;;;;20.08;18.08;;;12.10;99.90;;;;;;5113173;28;20188;-56
2023/04/22 11:43:07;;;;;;;19.75;17.75;;;12.20;99.90;;;;;;5113843;28;20162;-57
2023/04/22 11:45:34;;;;;;;20.27;18.13;;;12.20;99.90;;;;;;5114044;28;20248;-56
2023/04/22 11:48:01;;;;;;;20.40;18.50;;;12.10;99.90;;;;;;5113853;28;20173;-57
2023/04/22 11:50:30;;;;;;;20.70;18.67;;;12.10;99.90;;;;;;5095694;28;20173;-56
2023/04/22 11:53:01;;;;;;;21.90;19.80;;;12.10;99.90;;;;;;5113786;28;20619;-56
2023/04/22 11:55:31;;;;;;;23.75;21.45;;;12.20;99.90;;;;;;5095864;28;20219;-57
2023/04/22 11:57:58;;;;;;;22.92;20.83;;;12.20;99.90;;;;;;5114103;28;20248;-58
2023/04/22 12:00:30;;;;;;;23.15;20.90;;;12.30;99.90;;;;;;5113690;28;20258;-58
2023/04/22 12:03:06;;;;;;;22.23;20.13;;;12.30;99.90;;;;;;5113244;28;20198;-56
2023/04/22 12:05:42;;;;;;;21.23;19.25;;;12.30;99.90;;;;;;5113731;28;20177;-56
2023/04/22 12:08:18;;;;;;;21.13;19.05;;;12.30;99.90;;;;;;5113781;28;20188;-56
2023/04/22 12:10:46;;;;;;;21.40;19.33;;;12.30;99.90;;;;;;5113888;28;20177;-57
2023/04/22 12:13:18;;;;;;;20.75;18.73;;;12.30;99.90;;;;;;5113603;28;20264;-57
2023/04/22 12:15:44;;;;;;;19.75;17.85;;;12.40;99.90;;;;;;5113739;28;20248;-57
2023/04/22 12:18:11;;;;;;;19.48;17.58;;;12.30;99.90;;;;;;5113467;28;20214;-57
2023/04/22 12:20:40;;;;;;;19.42;17.52;;;12.30;99.90;;;;;;5113225;28;20642;-57
2023/04/22 12:23:14;;;;;;;18.73;17.02;;;12.30;99.90;;;;;;5113464;28;20169;-57
2023/04/22 12:25:40;;;;;;;20.63;18.67;;;12.30;99.90;;;;;;5113516;28;20173;-57
2023/04/22 12:28:06;;;;;;;22.73;20.52;;;12.30;99.90;;;;;;5113467;28;20210;-57
2023/04/22 12:30:32;;;;;;;21.17;19.17;;;12.30;99.90;;;;;;5113375;28;20189;-57